Terminal Aerodrome Forecast
Issued by NWS Austin/San Antonio, TX

Home | Current Version | Previous Version | Text Only | Print | Product List | Glossary On
Versions: 1 2 3 4 5 6 7 8 9 10 11 12 13 14 15 16 17 18 19 20 21 22 23 24 25
000
FTUS44 KEWX 081722
TAFAUS
TAF
KAUS 081722Z 0818/0924 01023G33KT P6SM FEW027 SCT045 BKN200
     FM090000 01019KT P6SM OVC050
     FM090600 36008KT P6SM OVC070
     FM091600 03008KT P6SM SCT250=

USA.gov is the U.S. government's official web portal to all federal, state and local government web resources and services.